Texhoma, OK (73949)

1:19 AM CDT on August 25, 2016 (GMT -0500)
MesoWest | | Change Station

Elev 3499 ft 36.49 °N, 101.80 °W | Updated 1 hour ago

Overcast
Overcast
62.0 °F
Feels Like 62.0 °F
N
0.0
Wind Variable Wind from North
Gusts 0.0 mph

Today
High -- | Low -- °F
--% Chance of Precip.
Yesterday
High -- | Low -- °F
Precip. -- in
Pressure 29.98 in
Visibility 9.0 miles
Clouds Overcast 10000 ft
Dew Point Not available.
Humidity Not available.
Rainfall in
Snow Depth Not available.
7:13 AM 8:24 PM
Waning Gibbous, 49% visible
METAR KGUY 250553Z AUTO 34013KT 9SM -RA OVC100 18/17 A3011 RMK AO2 SLP152 P0005 60064 T01780167 10217 20178 403170178 50012
Pressure 29.98 in
Visibility 9.0 miles
Clouds Overcast 10000 ft
Dew Point Not available.
Humidity Not available.
Rainfall in
Snow Depth Not available.
7:13 AM 8:24 PM
Waning Gibbous, 49% visible
METAR KGUY 250553Z AUTO 34013KT 9SM -RA OVC100 18/17 A3011 RMK AO2 SLP152 P0005 60064 T01780167 10217 20178 403170178 50012

10-Day Weather Forecast

Almanac

Astronomy

Aug. 25, 2016 Rise Set
Actual Time
Civil Twilight
Nautical Twilight
Astronomical Twilight
Moon
Length of Visible Light
Length of Day
Tomorrow will be .
, % of the Moon is Illuminated

Today's Extremes

State Highs State Lows

Community

WunderPhotos

Upload Photos

1,934,803 photos uploaded!

WunderBlog® & News

Nearby

Air Quality

  Air Quality AQ Index Pollutant
Not available.

Snow Depth

Station Depth Elevation

Earthquake Activity

City Distance Mag. Time & Date
Minimum magnitude displayed is 2.5.

Coastal Water Temperatures

Place Temperature

Stations

Nearby Weather Stations

Station Location Temp. Windchill Dew Point Humidity Wind Precip. Elev Updated Type
                   

Watches & Warnings

There are currently no watches in effect.